Time;durP1;ratioP1;P1;durP2;ratioP2;P2;SDS_P1;SDS_P2;PMS_P1;PMS_P2;Temp;Humidity;BMP_temperature;BMP_pressure;BME280_temperature;BME280_humidity;BME280_pressure;Samples;Min_cycle;Max_cycle;Signal;HPM_P1;HPM_P2
2023/04/28 00:01:43;;;;;;;7.82;5.85;;;6.70;99.90;;;;;;5053713;28;20048;-73
2023/04/28 00:04:09;;;;;;;9.50;5.82;;;6.80;99.90;;;;;;5053336;28;20037;-74
2023/04/28 00:06:36;;;;;;;11.68;6.95;;;6.70;99.90;;;;;;5053446;28;20052;-73
2023/04/28 00:09:02;;;;;;;8.88;5.57;;;6.70;99.90;;;;;;5053369;28;20045;-74
2023/04/28 00:11:28;;;;;;;9.82;6.38;;;6.70;99.90;;;;;;5053894;28;20393;-73
2023/04/28 00:13:53;;;;;;;9.55;6.03;;;6.70;99.90;;;;;;5052224;28;20036;-74
2023/04/28 00:16:19;;;;;;;10.95;6.07;;;6.70;99.90;;;;;;5053315;28;20048;-74
2023/04/28 00:18:45;;;;;;;8.55;5.90;;;6.70;99.90;;;;;;5052221;28;20124;-73
2023/04/28 00:21:11;;;;;;;8.75;5.75;;;6.70;99.90;;;;;;5053192;28;20489;-73
2023/04/28 00:23:36;;;;;;;8.35;5.68;;;6.90;99.90;;;;;;5057333;28;20040;-74
2023/04/28 00:26:02;;;;;;;8.93;6.00;;;6.60;99.90;;;;;;5057230;28;20110;-74
2023/04/28 00:28:28;;;;;;;8.32;5.53;;;6.60;99.90;;;;;;5055958;28;20136;-73
2023/04/28 00:30:53;;;;;;;9.30;5.40;;;6.60;99.90;;;;;;5057467;28;20060;-72
2023/04/28 00:33:19;;;;;;;7.70;5.40;;;6.60;99.90;;;;;;5056727;28;20485;-73
2023/04/28 00:35:45;;;;;;;9.00;5.88;;;6.60;99.90;;;;;;5057731;28;20136;-73
2023/04/28 00:38:11;;;;;;;8.50;5.68;;;6.60;99.90;;;;;;5056127;28;20049;-73
2023/04/28 00:40:38;;;;;;;8.25;5.50;;;6.60;99.90;;;;;;5056966;28;20080;-73
2023/04/28 00:43:04;;;;;;;8.15;5.47;;;6.60;99.90;;;;;;5056959;28;20044;-73
2023/04/28 00:45:30;;;;;;;9.98;6.13;;;6.60;99.90;;;;;;5057512;28;20094;-73
2023/04/28 00:47:57;;;;;;;10.15;6.03;;;6.60;99.90;;;;;;5056878;28;20049;-73
2023/04/28 00:50:24;;;;;;;8.88;5.82;;;6.60;99.90;;;;;;5057429;28;20055;-74
2023/04/28 00:52:51;;;;;;;9.43;5.28;;;6.60;99.90;;;;;;5057288;28;20045;-73
2023/04/28 00:55:17;;;;;;;8.43;5.75;;;6.50;99.90;;;;;;5056761;28;20099;-73
2023/04/28 00:57:43;;;;;;;9.73;6.15;;;6.50;99.90;;;;;;5057581;28;20099;-73
2023/04/28 01:00:09;;;;;;;7.85;5.88;;;6.50;99.90;;;;;;5055725;28;20085;-73
2023/04/28 01:02:35;;;;;;;8.45;5.88;;;6.50;99.90;;;;;;5057131;28;20049;-74
2023/04/28 01:05:02;;;;;;;9.60;5.60;;;6.50;99.90;;;;;;5056550;28;20036;-74
2023/04/28 01:07:28;;;;;;;8.55;5.97;;;6.50;99.90;;;;;;5057050;28;20049;-74
2023/04/28 01:09:54;;;;;;;8.75;5.82;;;6.60;99.90;;;;;;5056489;28;20084;-74
2023/04/28 01:12:20;;;;;;;10.27;6.53;;;6.50;99.90;;;;;;5056439;28;20061;-73
2023/04/28 01:14:47;;;;;;;11.43;6.60;;;6.50;99.90;;;;;;5054856;28;20390;-74
2023/04/28 01:17:13;;;;;;;9.30;5.63;;;6.50;99.90;;;;;;5057128;28;20053;-74
2023/04/28 01:19:38;;;;;;;9.38;6.38;;;6.50;99.90;;;;;;5056359;28;20045;-73
2023/04/28 01:22:04;;;;;;;11.05;6.45;;;6.50;99.90;;;;;;5056615;28;20045;-74
2023/04/28 01:24:30;;;;;;;9.57;6.18;;;6.50;99.90;;;;;;5056244;28;20041;-74
2023/04/28 01:26:55;;;;;;;8.52;5.43;;;6.50;99.90;;;;;;5055261;28;20175;-74
2023/04/28 01:29:21;;;;;;;10.82;6.50;;;6.50;99.90;;;;;;5037922;28;20061;-74
2023/04/28 01:31:47;;;;;;;10.55;6.45;;;6.50;99.90;;;;;;5056028;28;20056;-73
2023/04/28 01:34:12;;;;;;;9.63;6.25;;;6.50;99.90;;;;;;5056491;28;20048;-73
2023/04/28 01:36:38;;;;;;;9.23;6.22;;;6.60;99.90;;;;;;5055963;28;20136;-74
2023/04/28 01:39:05;;;;;;;10.02;6.50;;;6.50;99.90;;;;;;5055948;28;20048;-74
2023/04/28 01:41:33;;;;;;;10.52;6.25;;;6.60;99.90;;;;;;5056480;28;20433;-74
2023/04/28 01:43:59;;;;;;;9.43;6.03;;;6.70;99.90;;;;;;5055639;28;20510;-74
2023/04/28 01:46:25;;;;;;;11.63;6.43;;;6.60;99.90;;;;;;5054613;28;20064;-74
2023/04/28 01:48:50;;;;;;;9.80;6.47;;;6.60;99.90;;;;;;5054857;28;20478;-74
2023/04/28 01:51:16;;;;;;;9.65;6.20;;;6.60;99.90;;;;;;5056224;28;20059;-74
2023/04/28 01:53:42;;;;;;;8.68;5.95;;;6.60;99.90;;;;;;5055589;28;20045;-74
2023/04/28 01:56:08;;;;;;;10.38;6.47;;;6.60;99.90;;;;;;5055684;28;20571;-74
2023/04/28 01:58:33;;;;;;;11.77;6.97;;;6.70;99.90;;;;;;5055623;28;20427;-74
2023/04/28 02:00:59;;;;;;;8.52;5.75;;;6.60;99.90;;;;;;5055541;28;20378;-74
2023/04/28 02:03:26;;;;;;;9.43;6.35;;;6.60;99.90;;;;;;5055553;28;20395;-74
2023/04/28 02:05:52;;;;;;;9.80;6.38;;;6.60;99.90;;;;;;5055524;28;20056;-74
2023/04/28 02:08:18;;;;;;;9.23;6.10;;;6.60;99.90;;;;;;5055429;28;20041;-74
2023/04/28 02:10:44;;;;;;;8.93;5.68;;;6.60;99.90;;;;;;5055915;28;20363;-74
2023/04/28 02:13:10;;;;;;;9.95;6.68;;;6.60;99.90;;;;;;5055085;28;20049;-74
2023/04/28 02:15:42;;;;;;;10.27;6.15;;;6.60;99.90;;;;;;5055347;28;20040;-74
2023/04/28 02:18:09;;;;;;;9.07;5.95;;;6.50;99.90;;;;;;5055293;28;20045;-74
2023/04/28 02:20:34;;;;;;;9.48;6.32;;;6.40;99.90;;;;;;5054293;28;20440;-74
2023/04/28 02:23:00;;;;;;;10.48;6.40;;;6.40;99.90;;;;;;5055182;28;20040;-74
2023/04/28 02:25:26;;;;;;;10.43;6.75;;;6.40;99.90;;;;;;5055543;28;20106;-74
2023/04/28 02:27:51;;;;;;;11.10;6.80;;;6.40;99.90;;;;;;5054991;28;20040;-74
2023/04/28 02:30:17;;;;;;;11.82;6.80;;;6.40;99.90;;;;;;5055529;28;20061;-74
2023/04/28 02:32:43;;;;;;;9.65;6.20;;;6.30;99.90;;;;;;5053758;28;20131;-74
2023/04/28 02:35:09;;;;;;;10.40;6.93;;;6.40;99.90;;;;;;5055348;28;20084;-74
2023/04/28 02:37:35;;;;;;;10.23;6.47;;;6.40;99.90;;;;;;5054852;28;20060;-74
2023/04/28 02:40:00;;;;;;;8.15;6.05;;;6.40;99.90;;;;;;5055321;28;20083;-74
2023/04/28 02:42:26;;;;;;;12.88;7.20;;;6.40;99.90;;;;;;5054359;28;20049;-74
2023/04/28 02:44:51;;;;;;;10.05;6.85;;;6.40;99.90;;;;;;5053999;28;20045;-74
2023/04/28 02:47:17;;;;;;;14.82;6.70;;;6.30;99.90;;;;;;5054967;28;20041;-74
2023/04/28 02:49:43;;;;;;;10.77;7.13;;;6.30;99.90;;;;;;5053488;28;20094;-74
2023/04/28 02:52:08;;;;;;;9.93;6.82;;;6.30;99.90;;;;;;5054604;28;20512;-74
2023/04/28 02:54:36;;;;;;;11.48;7.13;;;6.30;99.90;;;;;;5053280;28;20501;-74
2023/04/28 02:57:03;;;;;;;9.75;6.30;;;6.30;99.90;;;;;;5055277;28;20049;-74
2023/04/28 02:59:29;;;;;;;10.90;6.72;;;6.30;99.90;;;;;;5054347;28;20045;-74
2023/04/28 03:01:55;;;;;;;8.95;6.20;;;6.30;99.90;;;;;;5054308;28;20045;-74
2023/04/28 03:04:21;;;;;;;10.45;6.75;;;6.20;99.90;;;;;;5054305;28;20052;-74
2023/04/28 03:06:47;;;;;;;10.18;6.55;;;6.20;99.90;;;;;;5054124;28;20080;-74
2023/04/28 03:09:15;;;;;;;9.38;6.20;;;6.20;99.90;;;;;;5053303;28;20445;-73
2023/04/28 03:11:40;;;;;;;10.20;6.57;;;6.10;99.90;;;;;;5054240;28;20041;-74
2023/04/28 03:14:06;;;;;;;10.77;6.72;;;6.10;99.90;;;;;;5054626;28;20562;-74
2023/04/28 03:16:32;;;;;;;9.73;6.78;;;6.10;99.90;;;;;;5053720;28;20531;-73
2023/04/28 03:18:58;;;;;;;10.95;6.60;;;6.00;99.90;;;;;;5054150;28;20053;-74
2023/04/28 03:21:26;;;;;;;11.88;6.20;;;6.00;99.90;;;;;;5054622;28;20064;-74
2023/04/28 03:23:52;;;;;;;9.75;6.43;;;6.00;99.90;;;;;;5054515;28;20088;-73
2023/04/28 03:26:18;;;;;;;10.57;6.95;;;6.00;99.90;;;;;;5052407;28;20481;-74
2023/04/28 03:28:44;;;;;;;10.95;6.65;;;6.00;99.90;;;;;;5054552;28;20140;-74
2023/04/28 03:31:10;;;;;;;13.80;7.20;;;5.90;99.90;;;;;;5053622;28;20358;-74
2023/04/28 03:33:35;;;;;;;10.48;6.65;;;5.90;99.90;;;;;;5054324;28;20083;-73
2023/04/28 03:36:01;;;;;;;12.55;7.93;;;5.90;99.90;;;;;;5053569;28;20424;-74
2023/04/28 03:38:27;;;;;;;9.20;6.97;;;5.90;99.90;;;;;;5053559;28;20053;-74
2023/04/28 03:40:53;;;;;;;13.68;7.85;;;5.90;99.90;;;;;;5053950;28;20402;-74
2023/04/28 03:43:18;;;;;;;12.13;7.22;;;5.90;99.90;;;;;;5052802;28;20056;-74
2023/04/28 03:45:44;;;;;;;12.13;7.22;;;5.90;99.90;;;;;;5052452;28;20556;-74
2023/04/28 03:48:10;;;;;;;12.02;7.00;;;5.90;99.90;;;;;;5053686;28;20052;-74
2023/04/28 03:50:36;;;;;;;11.63;6.75;;;6.00;99.90;;;;;;5052926;28;20048;-74
2023/04/28 03:53:01;;;;;;;11.07;7.50;;;5.90;99.90;;;;;;5053446;28;20130;-74
2023/04/28 03:55:27;;;;;;;12.57;7.70;;;5.90;99.90;;;;;;5053456;28;20462;-74
2023/04/28 03:57:53;;;;;;;13.52;7.45;;;5.90;99.90;;;;;;5052778;28;20045;-74
2023/04/28 04:00:19;;;;;;;12.40;7.13;;;5.90;99.90;;;;;;5053539;28;20044;-74
2023/04/28 04:02:45;;;;;;;11.70;6.85;;;5.90;99.90;;;;;;5053936;28;20088;-74
2023/04/28 04:05:11;;;;;;;11.65;6.78;;;5.90;99.90;;;;;;5053430;28;20047;-74
2023/04/28 04:07:36;;;;;;;10.07;6.85;;;5.90;99.90;;;;;;5053939;28;20045;-74
2023/04/28 04:10:02;;;;;;;12.07;6.85;;;5.90;99.90;;;;;;5053248;28;20147;-74
2023/04/28 04:12:28;;;;;;;12.55;6.85;;;5.90;99.90;;;;;;5053079;28;20071;-74
2023/04/28 04:14:54;;;;;;;10.98;6.78;;;5.90;99.90;;;;;;5051978;28;20541;-74
2023/04/28 04:17:19;;;;;;;10.30;7.28;;;5.90;99.90;;;;;;5053259;28;20454;-74
2023/04/28 04:19:45;;;;;;;10.98;7.22;;;5.90;99.90;;;;;;5053802;28;20047;-74
2023/04/28 04:22:11;;;;;;;13.13;7.65;;;5.90;99.90;;;;;;5053397;28;20474;-74
2023/04/28 04:24:37;;;;;;;11.43;7.45;;;5.90;99.90;;;;;;5053351;28;20458;-74
2023/04/28 04:27:02;;;;;;;11.32;7.25;;;5.90;99.90;;;;;;5053804;28;20089;-74
2023/04/28 04:29:28;;;;;;;12.95;7.80;;;5.90;99.90;;;;;;5051904;28;20191;-74
2023/04/28 04:31:54;;;;;;;14.07;6.90;;;5.90;99.90;;;;;;5052983;28;20371;-74
2023/04/28 04:34:19;;;;;;;11.20;6.90;;;5.90;99.90;;;;;;5052809;28;20037;-74
2023/04/28 04:36:45;;;;;;;11.93;7.90;;;6.00;99.90;;;;;;5052380;28;20123;-74
2023/04/28 04:39:11;;;;;;;13.15;7.60;;;6.00;99.90;;;;;;5053673;28;20378;-74
2023/04/28 04:41:37;;;;;;;10.35;7.15;;;6.10;99.90;;;;;;5035607;28;20045;-74
2023/04/28 04:44:03;;;;;;;16.30;7.72;;;6.10;99.90;;;;;;5052829;28;20052;-74
2023/04/28 04:46:29;;;;;;;14.82;7.13;;;6.10;99.90;;;;;;5052424;28;20116;-74
2023/04/28 04:48:55;;;;;;;24.30;19.60;;;6.20;99.90;;;;;;5053885;28;20068;-74
2023/04/28 04:51:20;;;;;;;11.43;7.57;;;6.20;99.90;;;;;;5052088;28;20388;-74
2023/04/28 04:53:46;;;;;;;14.43;7.97;;;6.20;99.90;;;;;;5053716;28;20057;-74
2023/04/28 04:56:12;;;;;;;12.70;6.65;;;6.30;99.90;;;;;;5052961;28;20462;-74
2023/04/28 04:58:37;;;;;;;10.65;7.10;;;6.30;99.90;;;;;;5052932;28;20045;-73
2023/04/28 05:01:03;;;;;;;11.55;7.50;;;6.30;99.90;;;;;;5052926;28;20037;-74
2023/04/28 05:03:29;;;;;;;12.45;7.38;;;6.30;99.90;;;;;;5051761;28;20033;-74
2023/04/28 05:05:54;;;;;;;12.38;7.53;;;6.30;99.90;;;;;;5035663;28;20087;-74
2023/04/28 05:08:20;;;;;;;10.30;6.78;;;6.30;99.90;;;;;;5054639;28;20099;-74
2023/04/28 05:10:46;;;;;;;11.10;7.10;;;6.40;99.90;;;;;;5056699;28;20068;-74
2023/04/28 05:13:12;;;;;;;12.13;7.47;;;6.50;99.90;;;;;;5056330;28;20037;-74
2023/04/28 05:15:37;;;;;;;12.15;6.88;;;6.50;99.90;;;;;;5038530;28;20155;-74
2023/04/28 05:18:08;;;;;;;11.07;6.65;;;6.50;99.90;;;;;;5056403;28;20128;-74
2023/04/28 05:20:34;;;;;;;10.90;7.15;;;6.60;99.90;;;;;;5056403;28;20048;-74
2023/04/28 05:23:00;;;;;;;10.38;6.50;;;6.60;99.90;;;;;;5057094;28;20047;-74
2023/04/28 05:25:25;;;;;;;10.32;6.85;;;6.60;99.90;;;;;;5056271;28;20071;-74
2023/04/28 05:27:51;;;;;;;9.95;6.90;;;6.70;99.90;;;;;;5055939;28;20045;-74
2023/04/28 05:30:17;;;;;;;10.55;6.55;;;6.70;99.90;;;;;;5056159;28;20055;-74
2023/04/28 05:32:42;;;;;;;10.70;6.78;;;6.80;99.90;;;;;;5055987;28;20051;-74
2023/04/28 05:35:08;;;;;;;12.30;7.25;;;6.90;99.90;;;;;;5056109;28;20047;-74
2023/04/28 05:37:36;;;;;;;11.27;6.82;;;6.90;99.90;;;;;;5056317;28;20543;-74
2023/04/28 05:40:02;;;;;;;10.40;6.57;;;7.00;99.90;;;;;;5056007;28;20036;-74
2023/04/28 05:42:28;;;;;;;10.90;6.78;;;7.10;99.90;;;;;;5056497;28;20499;-74
2023/04/28 05:44:54;;;;;;;9.43;6.38;;;7.10;99.90;;;;;;5055899;28;20080;-74
2023/04/28 05:47:20;;;;;;;9.85;6.25;;;7.20;99.90;;;;;;5055578;28;20048;-74
2023/04/28 05:49:46;;;;;;;10.88;6.70;;;7.20;99.90;;;;;;5056326;28;20443;-74
2023/04/28 05:52:12;;;;;;;9.13;5.90;;;7.20;99.90;;;;;;5055999;28;20048;-74
2023/04/28 05:54:37;;;;;;;10.43;6.78;;;7.20;99.90;;;;;;5055578;28;20045;-74
2023/04/28 05:57:03;;;;;;;10.63;6.68;;;7.30;99.90;;;;;;5055589;28;20056;-74
2023/04/28 05:59:30;;;;;;;11.80;6.65;;;7.30;99.90;;;;;;5055608;28;20048;-74
2023/04/28 06:01:56;;;;;;;9.98;5.78;;;7.30;99.90;;;;;;5055448;28;20143;-75
2023/04/28 06:04:21;;;;;;;8.90;5.82;;;7.40;99.90;;;;;;5055409;28;20148;-75
2023/04/28 06:06:47;;;;;;;10.35;6.10;;;7.40;99.90;;;;;;5055200;28;20064;-74
2023/04/28 06:09:13;;;;;;;9.07;6.00;;;7.40;99.90;;;;;;5055360;28;20045;-74
2023/04/28 06:11:38;;;;;;;10.38;7.97;;;7.40;99.90;;;;;;5055257;28;20111;-74
2023/04/28 06:14:04;;;;;;;11.05;6.10;;;7.40;99.90;;;;;;5055258;28;20048;-74
2023/04/28 06:16:30;;;;;;;9.90;6.65;;;7.40;99.90;;;;;;5055261;28;20059;-74
2023/04/28 06:18:56;;;;;;;11.95;6.25;;;7.40;99.90;;;;;;5054664;28;20486;-74
2023/04/28 06:21:23;;;;;;;9.85;5.90;;;7.50;99.90;;;;;;5053715;28;20095;-74
2023/04/28 06:23:49;;;;;;;7.97;5.80;;;7.40;99.90;;;;;;5055221;28;20106;-74
2023/04/28 06:26:15;;;;;;;10.32;6.53;;;7.40;99.90;;;;;;5055363;28;20049;-74
2023/04/28 06:28:41;;;;;;;10.63;6.50;;;7.50;99.90;;;;;;5054885;28;20092;-74
2023/04/28 06:31:08;;;;;;;10.05;6.25;;;7.50;99.90;;;;;;5053716;28;20137;-74
2023/04/28 06:33:33;;;;;;;11.40;6.38;;;7.50;99.90;;;;;;5055290;28;20045;-74
2023/04/28 06:35:59;;;;;;;8.93;5.60;;;7.50;99.90;;;;;;5054934;28;20044;-74
2023/04/28 06:38:25;;;;;;;8.63;6.10;;;7.60;99.90;;;;;;5055075;28;20413;-74
2023/04/28 06:40:51;;;;;;;8.05;5.80;;;7.60;99.90;;;;;;5054560;28;20057;-74
2023/04/28 06:43:16;;;;;;;9.93;7.25;;;7.60;99.90;;;;;;5054376;28;20041;-74
2023/04/28 06:45:42;;;;;;;9.65;5.80;;;7.60;99.90;;;;;;5053956;28;20048;-74
2023/04/28 06:48:08;;;;;;;11.90;6.25;;;7.70;99.90;;;;;;5054547;28;20492;-79
2023/04/28 06:50:36;;;;;;;9.00;5.90;;;7.70;99.90;;;;;;5054125;28;20425;-80
2023/04/28 06:53:01;;;;;;;8.70;5.75;;;7.70;99.90;;;;;;5054394;28;20041;-80
2023/04/28 06:55:27;;;;;;;7.70;5.80;;;7.80;99.90;;;;;;5053251;28;20041;-80
2023/04/28 06:57:53;;;;;;;7.38;5.22;;;7.80;99.90;;;;;;5053433;28;20050;-81
2023/04/28 07:00:18;;;;;;;9.80;5.47;;;7.80;99.90;;;;;;5053080;28;20084;-81
2023/04/28 07:02:44;;;;;;;9.85;5.60;;;7.80;99.90;;;;;;5054234;28;20138;-81
2023/04/28 07:05:10;;;;;;;8.75;6.10;;;7.80;99.90;;;;;;5053564;28;20091;-79
2023/04/28 07:07:37;;;;;;;8.00;5.68;;;7.80;99.90;;;;;;5054162;28;20510;-76
2023/04/28 07:10:04;;;;;;;9.73;5.82;;;7.80;99.90;;;;;;5054136;28;20539;-75
2023/04/28 07:12:29;;;;;;;7.85;5.50;;;7.80;99.90;;;;;;5054042;28;20374;-74
2023/04/28 07:14:55;;;;;;;8.65;5.30;;;7.90;99.90;;;;;;5052867;28;20045;-75
2023/04/28 07:17:21;;;;;;;7.05;5.18;;;7.90;99.90;;;;;;5053366;28;20048;-79
2023/04/28 07:19:48;;;;;;;7.85;5.07;;;8.00;99.90;;;;;;5053991;28;20049;-81
2023/04/28 07:22:14;;;;;;;7.53;5.22;;;8.00;99.90;;;;;;5054036;28;20049;-76
2023/04/28 07:24:40;;;;;;;7.80;5.00;;;8.10;99.90;;;;;;5053907;28;20044;-79
2023/04/28 07:27:05;;;;;;;9.43;6.07;;;8.20;99.90;;;;;;5054614;28;20064;-79
2023/04/28 07:29:33;;;;;;;10.80;6.07;;;8.30;99.90;;;;;;5054012;28;20057;-75
2023/04/28 07:32:00;;;;;;;8.25;5.85;;;8.40;99.90;;;;;;5053563;28;20055;-77
2023/04/28 07:34:26;;;;;;;8.38;5.43;;;8.40;99.90;;;;;;5054103;28;20041;-76
2023/04/28 07:36:52;;;;;;;8.13;5.43;;;8.50;99.90;;;;;;5053811;28;20044;-75
2023/04/28 07:39:18;;;;;;;8.27;5.60;;;8.60;99.90;;;;;;5036260;28;20049;-75
2023/04/28 07:41:43;;;;;;;8.32;5.35;;;8.70;99.90;;;;;;5053640;28;20051;-75
2023/04/28 07:44:09;;;;;;;8.38;5.65;;;8.70;99.90;;;;;;5052488;28;20091;-74
2023/04/28 07:46:36;;;;;;;6.45;4.55;;;8.80;99.90;;;;;;5052495;28;20059;-74
2023/04/28 07:49:03;;;;;;;7.40;5.22;;;8.80;99.90;;;;;;5054099;28;20442;-79
2023/04/28 07:51:29;;;;;;;7.85;4.85;;;8.90;99.90;;;;;;5053580;28;20045;-78
2023/04/28 07:53:56;;;;;;;8.15;6.20;;;9.00;99.90;;;;;;5053450;28;20048;-78
2023/04/28 07:56:22;;;;;;;6.70;5.30;;;9.00;99.90;;;;;;5053580;28;20041;-80
2023/04/28 07:58:48;;;;;;;7.25;5.40;;;9.00;99.90;;;;;;5053554;28;20560;-80
2023/04/28 08:01:13;;;;;;;8.88;5.43;;;9.10;99.90;;;;;;5053465;28;20127;-79
2023/04/28 08:03:39;;;;;;;8.40;4.97;;;9.10;99.90;;;;;;5053833;28;20076;-81
2023/04/28 08:06:05;;;;;;;10.20;5.70;;;9.20;99.90;;;;;;5035909;28;20147;-79
2023/04/28 08:08:31;;;;;;;10.55;5.47;;;9.30;99.90;;;;;;5053395;28;20473;-79
2023/04/28 08:10:57;;;;;;;6.95;4.90;;;9.50;99.90;;;;;;5035677;28;20129;-80
2023/04/28 08:13:23;;;;;;;7.30;5.25;;;9.70;99.90;;;;;;5053247;28;20084;-82
2023/04/28 08:15:49;;;;;;;7.63;5.47;;;9.80;99.90;;;;;;5053392;28;20080;-82
2023/04/28 08:18:15;;;;;;;9.43;5.60;;;9.90;99.90;;;;;;5053319;28;20049;-82
2023/04/28 08:20:41;;;;;;;7.35;4.90;;;10.00;99.90;;;;;;5053225;28;20041;-83
2023/04/28 08:23:08;;;;;;;7.68;4.78;;;10.00;99.90;;;;;;5052312;28;20106;-84
2023/04/28 08:25:34;;;;;;;6.05;5.07;;;10.00;99.90;;;;;;5053964;28;20052;-73
2023/04/28 08:28:02;;;;;;;9.05;5.18;;;10.10;99.90;;;;;;5052754;28;20049;-73
2023/04/28 08:30:28;;;;;;;6.75;4.93;;;10.10;99.90;;;;;;5053728;28;20501;-73
2023/04/28 08:32:54;;;;;;;7.78;5.22;;;10.20;99.90;;;;;;5052940;28;20122;-73
2023/04/28 08:35:20;;;;;;;7.97;5.15;;;10.30;99.90;;;;;;5053182;28;20049;-73
2023/04/28 08:37:48;;;;;;;6.55;5.47;;;10.50;99.90;;;;;;5053104;28;20075;-73
2023/04/28 08:40:14;;;;;;;8.98;5.22;;;10.60;99.90;;;;;;5053103;28;20514;-74
2023/04/28 08:42:41;;;;;;;6.18;4.63;;;10.80;99.90;;;;;;5053903;28;20059;-74
2023/04/28 08:45:11;;;;;;;6.80;5.05;;;10.90;99.90;;;;;;5056366;28;20061;-74
2023/04/28 08:47:40;;;;;;;7.90;5.28;;;11.10;99.90;;;;;;5057521;28;20399;-73
2023/04/28 08:50:11;;;;;;;8.15;5.35;;;11.20;99.90;;;;;;5055991;28;20056;-73
2023/04/28 08:52:37;;;;;;;7.07;5.10;;;11.40;99.90;;;;;;5057713;28;20391;-72
2023/04/28 08:55:08;;;;;;;8.00;5.05;;;11.50;99.90;;;;;;5056713;28;20041;-73
2023/04/28 08:57:47;;;;;;;7.47;5.03;;;11.50;99.90;;;;;;5056764;28;20501;-73
2023/04/28 09:00:13;;;;;;;6.10;4.93;;;11.60;99.90;;;;;;5057142;28;20053;-73
2023/04/28 09:02:40;;;;;;;9.07;5.75;;;11.50;99.90;;;;;;5057146;28;20044;-73
2023/04/28 09:05:07;;;;;;;6.82;5.22;;;11.40;99.90;;;;;;5057172;28;20057;-73
2023/04/28 09:07:33;;;;;;;7.25;4.90;;;11.30;99.90;;;;;;5056599;28;20401;-74
2023/04/28 09:10:20;;;;;;;9.18;5.72;;;11.30;99.90;;;;;;5057156;28;20381;-74
2023/04/28 09:12:48;;;;;;;9.05;5.30;;;11.20;99.90;;;;;;5057011;28;20131;-74
2023/04/28 09:15:27;;;;;;;11.25;5.82;;;11.20;99.90;;;;;;5056083;28;20634;-73
2023/04/28 09:17:53;;;;;;;7.47;5.88;;;11.30;99.90;;;;;;5056351;28;20049;-74
2023/04/28 09:20:23;;;;;;;7.40;5.60;;;11.30;99.90;;;;;;5055677;28;20381;-73
2023/04/28 09:22:50;;;;;;;7.05;5.32;;;11.40;99.90;;;;;;5056262;28;20044;-73
2023/04/28 09:25:17;;;;;;;7.53;5.43;;;11.60;99.90;;;;;;5056323;28;20136;-74
2023/04/28 09:27:44;;;;;;;7.68;5.95;;;11.70;99.90;;;;;;5055568;28;20061;-73
2023/04/28 09:30:10;;;;;;;8.88;5.57;;;11.90;99.90;;;;;;5056424;28;20061;-74
2023/04/28 09:32:36;;;;;;;8.50;5.65;;;12.00;99.90;;;;;;5055993;28;20060;-74
2023/04/28 09:35:03;;;;;;;8.43;5.70;;;12.10;99.90;;;;;;5056289;28;20053;-73
2023/04/28 09:37:30;;;;;;;10.55;5.50;;;12.20;99.90;;;;;;5056042;28;20052;-74
2023/04/28 09:40:03;;;;;;;8.40;6.15;;;12.30;99.90;;;;;;5055974;28;20097;-73
2023/04/28 09:42:43;;;;;;;6.55;5.40;;;12.40;99.90;;;;;;5055822;28;20132;-74
2023/04/28 09:45:13;;;;;;;7.70;5.68;;;12.40;99.90;;;;;;5055884;28;20370;-74
2023/04/28 09:47:46;;;;;;;6.43;5.70;;;12.40;99.90;;;;;;5055857;28;20045;-74
2023/04/28 09:50:15;;;;;;;8.02;5.50;;;12.50;99.90;;;;;;5055067;28;20128;-74
2023/04/28 09:52:43;;;;;;;8.43;5.78;;;12.50;99.90;;;;;;5056562;28;20048;-73
2023/04/28 09:55:11;;;;;;;9.48;6.28;;;12.60;99.90;;;;;;5054382;28;20439;-73
2023/04/28 09:57:37;;;;;;;6.88;5.72;;;12.70;99.90;;;;;;5054961;28;20466;-74
2023/04/28 10:00:05;;;;;;;8.45;6.18;;;12.90;99.90;;;;;;5054666;28;20374;-74
2023/04/28 10:02:33;;;;;;;7.95;5.43;;;13.00;99.90;;;;;;5055128;28;20095;-83
2023/04/28 10:04:59;;;;;;;6.63;5.30;;;13.10;99.90;;;;;;5055566;28;20067;-82
2023/04/28 10:07:25;;;;;;;7.40;5.75;;;13.20;99.90;;;;;;5055211;28;20171;-82
2023/04/28 10:09:52;;;;;;;8.57;5.93;;;13.30;99.90;;;;;;5054668;28;20052;-84
2023/04/28 10:12:22;;;;;;;7.03;5.18;;;13.30;99.90;;;;;;5055263;28;20488;-80
2023/04/28 10:14:53;;;;;;;7.95;5.35;;;13.30;99.90;;;;;;5054974;28;20123;-81
2023/04/28 10:17:20;;;;;;;8.95;5.80;;;13.30;99.90;;;;;;5056067;28;20473;-80
2023/04/28 10:19:52;;;;;;;8.73;5.72;;;13.30;99.90;;;;;;5055716;28;20049;-73
2023/04/28 10:22:34;;;;;;;8.20;6.05;;;13.40;99.90;;;;;;5055181;28;20045;-74
2023/04/28 10:25:11;;;;;;;8.18;5.90;;;13.50;99.90;;;;;;5054195;28;20090;-73
2023/04/28 10:27:45;;;;;;;6.80;5.78;;;13.60;99.90;;;;;;5055750;28;20347;-73
2023/04/28 10:30:13;;;;;;;8.10;6.07;;;13.90;99.90;;;;;;5055261;28;20402;-73
2023/04/28 10:32:39;;;;;;;8.43;5.78;;;14.10;99.90;;;;;;5054899;28;20053;-74
2023/04/28 10:35:20;;;;;;;8.07;5.97;;;14.30;99.90;;;;;;5054715;28;20078;-73
2023/04/28 10:38:11;;;;;;;8.20;6.03;;;14.40;99.90;;;;;;5054470;28;20053;-73
2023/04/28 10:40:44;;;;;;;8.23;5.93;;;14.40;99.90;;;;;;5055168;28;20157;-73
2023/04/28 10:43:11;;;;;;;9.68;6.20;;;14.50;99.90;;;;;;5054714;28;20044;-74
2023/04/28 10:45:52;;;;;;;9.20;6.20;;;14.70;99.90;;;;;;5054595;28;20481;-73
2023/04/28 10:48:20;;;;;;;7.95;5.82;;;14.90;99.90;;;;;;5055360;28;20052;-73
2023/04/28 10:51:11;;;;;;;9.40;6.15;;;15.00;99.90;;;;;;5054540;28;20083;-73
2023/04/28 10:53:43;;;;;;;7.43;5.60;;;15.20;99.90;;;;;;5055416;28;20049;-72
2023/04/28 10:56:23;;;;;;;10.05;6.38;;;15.20;99.90;;;;;;5054497;28;20053;-72
2023/04/28 10:58:50;;;;;;;9.30;6.28;;;15.10;99.90;;;;;;5054945;28;20053;-73
2023/04/28 11:01:25;;;;;;;11.02;6.70;;;14.90;99.90;;;;;;5055148;28;20114;-72
2023/04/28 11:04:13;;;;;;;7.22;6.22;;;14.80;99.90;;;;;;5054266;28;20045;-74
2023/04/28 11:06:45;;;;;;;9.70;6.00;;;14.70;99.90;;;;;;5053529;28;20080;-73
2023/04/28 11:09:11;;;;;;;8.18;6.25;;;14.70;99.90;;;;;;5054587;28;20045;-79
2023/04/28 11:11:38;;;;;;;8.25;6.20;;;14.60;99.90;;;;;;5054418;28;20045;-78
2023/04/28 11:14:17;;;;;;;7.78;6.20;;;14.60;99.90;;;;;;5054132;28;20124;-79
2023/04/28 11:16:52;;;;;;;7.55;6.70;;;14.60;99.90;;;;;;5054123;28;20052;-78
2023/04/28 11:19:20;;;;;;;7.53;5.93;;;14.70;99.90;;;;;;5053391;28;20083;-72
2023/04/28 11:21:47;;;;;;;9.75;6.20;;;14.70;99.90;;;;;;5054886;28;20284;-73
2023/04/28 11:24:13;;;;;;;9.00;6.18;;;14.70;99.90;;;;;;5054007;28;20087;-77
2023/04/28 11:26:40;;;;;;;7.40;6.13;;;14.70;99.90;;;;;;5054235;28;20103;-80
2023/04/28 11:29:06;;;;;;;7.88;5.85;;;14.80;99.90;;;;;;5054375;28;20106;-79
2023/04/28 11:31:32;;;;;;;9.20;6.65;;;14.80;99.90;;;;;;5053920;28;20048;-79
2023/04/28 11:34:02;;;;;;;9.05;6.32;;;14.90;99.90;;;;;;5053715;28;20037;-79
2023/04/28 11:36:38;;;;;;;9.38;6.78;;;14.90;99.90;;;;;;5053841;28;20049;-77
2023/04/28 11:39:06;;;;;;;;;;;14.90;99.90;;;;;;5053940;28;20486;-78
2023/04/28 11:41:36;;;;;;;8.25;6.57;;;14.80;99.90;;;;;;5054066;28;19982;-72
2023/04/28 11:44:15;;;;;;;6.55;5.57;;;14.80;99.90;;;;;;5054125;28;20106;-81
2023/04/28 11:46:56;;;;;;;7.57;5.63;;;14.80;99.90;;;;;;5053943;28;20484;-82
2023/04/28 11:49:29;;;;;;;6.82;5.70;;;14.90;99.90;;;;;;5053967;28;20037;-83
2023/04/28 11:51:56;;;;;;;7.63;5.50;;;14.90;99.90;;;;;;5053473;28;20052;-77
2023/04/28 11:54:26;;;;;;;7.00;5.90;;;14.80;99.90;;;;;;5052352;28;20494;-79
2023/04/28 11:56:53;;;;;;;6.82;5.90;;;14.80;99.90;;;;;;5053347;28;20048;-81
2023/04/28 11:59:27;;;;;;;7.55;6.13;;;14.80;99.90;;;;;;5051989;28;20505;-75
2023/04/28 12:01:54;;;;;;;7.72;5.30;;;14.70;99.90;;;;;;5053327;28;20600;-75
2023/04/28 12:04:34;;;;;;;5.72;4.95;;;14.70;99.90;;;;;;5051872;28;20152;-75
2023/04/28 12:07:12;;;;;;;8.90;5.63;;;14.70;99.90;;;;;;5053355;28;20138;-74
2023/04/28 12:09:43;;;;;;;7.47;5.00;;;14.80;99.90;;;;;;5052538;28;20053;-74
2023/04/28 12:12:29;;;;;;;7.72;5.72;;;14.90;99.90;;;;;;5053155;28;20056;-74
2023/04/28 12:15:03;;;;;;;9.90;5.57;;;14.90;99.90;;;;;;5052265;28;20045;-75
2023/04/28 12:17:37;;;;;;;6.78;5.72;;;14.80;99.90;;;;;;5054510;28;20389;-75
2023/04/28 12:20:05;;;;;;;6.72;5.22;;;14.70;99.90;;;;;;5057331;28;20056;-75
2023/04/28 12:22:43;;;;;;;9.32;5.90;;;14.60;99.90;;;;;;5056257;28;20055;-74
2023/04/28 12:25:11;;;;;;;7.90;5.97;;;14.50;99.90;;;;;;5057889;28;20134;-73
2023/04/28 12:27:39;;;;;;;6.43;5.57;;;14.40;99.90;;;;;;5057088;28;20131;-73
2023/04/28 12:30:19;;;;;;;7.97;6.22;;;14.30;99.90;;;;;;5057427;28;20057;-75
2023/04/28 12:32:46;;;;;;;7.47;5.82;;;14.20;99.90;;;;;;5057465;28;20096;-74
2023/04/28 12:35:11;;;;;;;7.07;5.88;;;14.20;99.90;;;;;;5056652;28;20045;-74
2023/04/28 12:37:38;;;;;;;8.90;6.35;;;14.10;99.90;;;;;;5057128;28;20403;-74
2023/04/28 12:40:05;;;;;;;6.85;5.93;;;14.10;99.90;;;;;;5056830;28;20505;-73
2023/04/28 12:42:31;;;;;;;8.18;5.82;;;14.10;99.90;;;;;;5056828;28;20083;-75
2023/04/28 12:44:57;;;;;;;8.70;6.13;;;14.10;99.90;;;;;;5056044;28;20052;-74
2023/04/28 12:47:23;;;;;;;7.13;6.32;;;14.00;99.90;;;;;;5056773;28;20045;-75
2023/04/28 12:49:51;;;;;;;10.45;6.47;;;14.00;99.90;;;;;;5056995;28;20049;-81
2023/04/28 12:52:18;;;;;;;8.35;7.40;;;13.90;99.90;;;;;;5057037;28;20052;-78